Aérodrome :
LOGIN :

S'inscrire | Disclaimer

   EN    FR    IT 

 










Légende :    VFR   VFR Marginal   IFR   IFR Intensif   IFR Très Intensif
Visi : 
Plafond : 
>= 8 km
>= 3000ft
5 à 8 km
1000 à 3000 ft
1500m à 5 km
500 à 1000 ft
800 à 1500m
200 à 500 ft
< 800m
< 200 ft
Symboles :   Orages  Brouillard  Fortes neiges  Fortes précipitations  Vent > 20 kt
SIGMETs :   Divers  Orages  Givrage  Turbulence  Onde Orograph.  Cendres Volcan.






- Altitude de l'aérodrome : 16 ft
- Code IATA : EAS


LESO - San Sebastian Fuenterrabia

DERNIER METAR :
  • 230200Z AUTO 12004KT 9999 -RA NSC 12/11 Q1008

METARs EXPIRÉS :
  • 230130Z AUTO VRB02KT 9999 -RA NSC 12/11 Q1008
  • 230100Z AUTO 19004KT 150V210 8000 NSC 12/11 Q1009
  • 230030Z AUTO 19003KT 140V280 9999 FEW004 SCT011 12/11 Q1009
  • 230000Z AUTO 00000KT 9999 FEW011 11/11 Q1008
  • 222330Z AUTO 19005KT 9999 VV001 12/11 Q1009

TAF TAF LESO
Valide du 23 à 00h jusqu'au 24 à 00h UTC


222300Z 2300/2324 VRB05KT 9999 SCT010 BKN020 TX17/2314Z TN10/2304Z
TEMPO 2300/2306 3000 -RA BKN010
TEMPO 2312/2324 3000 RA SHRA BKN014 SCT020TCU
PROB40
TEMPO 2312/2324 1500 TS SHRA SCT025CB



MET'MAP, la Météo Aéronautique d'un coup d'oeil ! - Copyright ORBIFLY Décembre 2007 - Disclaimer

ORBIFLY MET'MAP TEAM :

Programmation & Développement : Alexandra Zaïnal
Conception & Développement : Baudouin d'Aumeries
Co-Programmation & Développement : Marc-Olivier Méhu
Soutien technique & logistique : Manuel Goepfert

Contact : metmap@orbifly.com




SOURCES & CREDITS :

   NOAA